Vauxhall, New Jersey
Current Conditions -  °F | °C
As of 2:51 PM on Monday 22 Dec 2014 (Local Time) from KEWR Reporting Station
Overcast Overcast  
Wind Chill: 38°   Ceiling: 1200
Heat Index: 42°   Visibility: 8mi
Dew Point: 37°   Wind: 7mph
Humidity: 82%   Direction: 10°N
Pressure: 30.23"   Gusts: NA
Location:  40.73°N, 74.28°W
Report Text: KEWR 221951Z 01006KT 8SM SCT007 OVC012 06/03 A3023 RMK AO2 SLP237 T00560028
Loading
Personal Weather Stations






























Interactive Weather Map New forecast layout! Learn more

10-Day Weather Forecast

Advertisements
Track Severe Weather on mobile